createdAt,value
2023-04-21T00:01:27.297Z,70.90
2023-04-21T00:04:49.877Z,71.00
2023-04-21T00:08:12.522Z,70.80
2023-04-21T00:11:34.792Z,70.80
2023-04-21T00:14:56.990Z,70.80
2023-04-21T00:18:19.200Z,71.00
2023-04-21T00:21:41.492Z,71.00
2023-04-21T00:25:03.953Z,71.00
2023-04-21T00:28:26.145Z,70.90
2023-04-21T00:31:50.937Z,71.10
2023-04-21T00:35:13.372Z,71.00
2023-04-21T00:38:35.667Z,71.00
2023-04-21T00:41:57.964Z,71.20
2023-04-21T00:45:20.236Z,71.30
2023-04-21T00:48:42.465Z,71.30
2023-04-21T00:52:06.334Z,71.30
2023-04-21T00:55:31.224Z,71.40
2023-04-21T00:58:54.719Z,71.40
2023-04-21T01:02:17.848Z,72.30
2023-04-21T01:05:40.625Z,71.50
2023-04-21T01:09:04.813Z,71.50
2023-04-21T01:12:27.086Z,71.60
2023-04-21T01:15:49.769Z,71.50
2023-04-21T01:19:12.685Z,71.50
2023-04-21T01:22:38.798Z,71.50
2023-04-21T01:26:01.146Z,71.50
2023-04-21T01:29:23.398Z,71.50
2023-04-21T01:32:45.768Z,71.50
2023-04-21T01:36:09.178Z,71.50
2023-04-21T01:39:31.707Z,72.40
2023-04-21T01:42:54.087Z,71.60
2023-04-21T01:46:20.576Z,71.60
2023-04-21T01:49:42.929Z,71.60
2023-04-21T01:53:05.542Z,71.40
2023-04-21T01:56:27.911Z,71.40
2023-04-21T01:59:50.244Z,71.40
2023-04-21T02:03:12.652Z,71.30
2023-04-21T02:06:35.036Z,71.10
2023-04-21T02:09:57.243Z,71.20
2023-04-21T02:13:19.472Z,71.20
2023-04-21T02:16:41.748Z,71.10
2023-04-21T02:20:04.525Z,71.00
2023-04-21T02:23:26.753Z,71.10
2023-04-21T02:26:50.321Z,71.20
2023-04-21T02:30:12.616Z,71.10
2023-04-21T02:33:37.469Z,71.00
2023-04-21T02:36:59.852Z,71.10
2023-04-21T02:40:22.109Z,71.10
2023-04-21T02:43:44.325Z,71.10
2023-04-21T02:47:06.585Z,71.10
2023-04-21T02:50:28.986Z,71.10
2023-04-21T02:53:51.302Z,71.10
2023-04-21T02:57:13.643Z,71.60
2023-04-21T03:00:36.103Z,71.80
2023-04-21T03:03:58.454Z,72.10
2023-04-21T03:07:20.844Z,71.80
2023-04-21T03:10:43.100Z,72.40
2023-04-21T03:14:05.328Z,72.50
2023-04-21T03:17:30.473Z,72.80
2023-04-21T03:21:00.574Z,72.70
2023-04-21T03:24:23.068Z,72.70
2023-04-21T03:27:45.613Z,72.60
2023-04-21T03:31:07.859Z,72.60
2023-04-21T03:34:30.056Z,72.50
2023-04-21T03:37:54.320Z,72.50
2023-04-21T03:41:16.554Z,72.60
2023-04-21T03:44:38.870Z,72.60
2023-04-21T03:48:01.202Z,72.50
2023-04-21T03:51:23.543Z,72.60
2023-04-21T03:54:45.903Z,72.60
2023-04-21T03:58:08.228Z,72.60
2023-04-21T04:01:30.458Z,72.60
2023-04-21T04:04:52.709Z,72.60
2023-04-21T04:08:15.047Z,72.60
2023-04-21T04:11:37.308Z,72.60
2023-04-21T04:15:01.264Z,72.60
2023-04-21T04:18:23.525Z,72.60
2023-04-21T04:21:47.521Z,72.60
2023-04-21T04:25:13.021Z,72.60
2023-04-21T04:28:35.567Z,72.60
2023-04-21T04:31:58.564Z,72.60
2023-04-21T04:35:20.947Z,72.60
2023-04-21T04:38:43.326Z,72.50
2023-04-21T04:42:11.798Z,72.40
2023-04-21T04:45:34.056Z,72.60
2023-04-21T04:48:56.259Z,72.50
2023-04-21T04:52:18.478Z,72.60
2023-04-21T04:55:40.655Z,72.50
2023-04-21T04:59:02.985Z,72.50
2023-04-21T05:02:25.770Z,72.50
2023-04-21T05:05:48.301Z,72.40
2023-04-21T05:09:10.509Z,72.60
2023-04-21T05:12:32.727Z,72.60
2023-04-21T05:15:59.588Z,72.50
2023-04-21T05:19:21.837Z,72.50
2023-04-21T05:22:44.071Z,72.40
2023-04-21T05:26:06.263Z,72.40
2023-04-21T05:29:28.718Z,72.40
2023-04-21T05:32:51.059Z,72.40
2023-04-21T05:36:13.327Z,72.40
2023-04-21T05:39:35.582Z,72.60
2023-04-21T05:42:57.742Z,73.20
2023-04-21T05:46:19.960Z,73.20
2023-04-21T05:49:44.178Z,73.10
2023-04-21T05:53:06.445Z,73.30
2023-04-21T05:56:28.778Z,73.80
2023-04-21T05:59:51.115Z,74.10
2023-04-21T06:03:13.500Z,74.10
2023-04-21T06:06:35.988Z,74.30
2023-04-21T06:09:58.421Z,74.30
2023-04-21T06:13:20.724Z,74.60
2023-04-21T06:16:42.984Z,74.40
2023-04-21T06:20:05.920Z,74.60
2023-04-21T06:23:28.156Z,74.60
2023-04-21T06:26:50.845Z,74.80
2023-04-21T06:30:13.491Z,75.20
2023-04-21T06:33:35.843Z,74.70
2023-04-21T06:36:58.080Z,74.20
2023-04-21T06:40:20.374Z,72.30
2023-04-21T06:43:42.630Z,75.20
2023-04-21T06:47:04.965Z,74.70
2023-04-21T06:50:27.517Z,73.90
2023-04-21T06:53:50.098Z,75.00
2023-04-21T06:57:12.430Z,74.30
2023-04-21T07:00:34.766Z,74.50
2023-04-21T07:03:57.135Z,74.10
2023-04-21T07:07:19.488Z,75.10
2023-04-21T07:10:41.868Z,74.80
2023-04-21T07:14:04.273Z,74.80
2023-04-21T07:17:26.567Z,74.50
2023-04-21T07:20:48.834Z,74.20
2023-04-21T07:24:11.057Z,74.50
2023-04-21T07:27:34.728Z,75.00
2023-04-21T07:30:57.110Z,75.00
2023-04-21T07:34:19.390Z,75.10
2023-04-21T07:37:41.688Z,78.00
2023-04-21T07:41:04.287Z,77.30
2023-04-21T07:44:26.541Z,76.80
2023-04-21T07:47:48.947Z,77.10
2023-04-21T07:51:11.388Z,77.10
2023-04-21T07:54:33.692Z,76.10
2023-04-21T07:57:56.053Z,76.00
2023-04-21T08:01:18.402Z,75.70
2023-04-21T08:04:40.757Z,75.60
2023-04-21T08:08:03.196Z,75.40
2023-04-21T08:11:25.708Z,75.30
2023-04-21T08:14:48.835Z,75.20
2023-04-21T08:18:11.491Z,75.10
2023-04-21T08:21:34.069Z,75.20
2023-04-21T08:24:56.528Z,75.30
2023-04-21T08:28:18.776Z,75.70
2023-04-21T08:31:41.274Z,75.40
2023-04-21T08:35:03.788Z,75.70
2023-04-21T08:38:26.159Z,74.90
2023-04-21T08:41:49.767Z,75.00
2023-04-21T08:45:12.172Z,75.10
2023-04-21T08:48:38.596Z,74.90
2023-04-21T08:52:01.083Z,75.10
2023-04-21T08:55:29.138Z,75.00
2023-04-21T08:58:51.374Z,74.70
2023-04-21T09:02:18.024Z,74.60
2023-04-21T09:05:43.196Z,74.50
2023-04-21T09:09:05.676Z,74.30
2023-04-21T09:12:29.179Z,75.20
2023-04-21T09:15:54.838Z,74.10
2023-04-21T09:19:17.288Z,73.90
2023-04-21T09:22:39.645Z,74.10
2023-04-21T09:26:03.876Z,73.70
2023-04-21T09:29:26.599Z,73.60
2023-04-21T09:32:49.782Z,73.80
2023-04-21T09:36:22.108Z,74.50
2023-04-21T09:40:03.574Z,74.50
2023-04-21T09:43:26.974Z,73.40
2023-04-21T09:47:03.598Z,73.50
2023-04-21T09:51:01.835Z,73.30
2023-04-21T09:57:50.697Z,73.30
2023-04-21T10:01:14.158Z,73.30
2023-04-21T10:04:38.636Z,73.50
2023-04-21T10:08:01.714Z,73.50
2023-04-21T10:11:24.403Z,73.50
2023-04-21T10:14:50.203Z,73.50
2023-04-21T10:18:19.706Z,73.40
2023-04-21T10:21:41.990Z,73.50
2023-04-21T10:25:08.949Z,73.30
2023-04-21T10:28:44.570Z,73.30
2023-04-21T10:32:09.141Z,73.20
2023-04-21T10:35:59.955Z,73.30
2023-04-21T10:39:29.466Z,73.00
2023-04-21T10:42:51.823Z,73.80
2023-04-21T10:46:37.048Z,73.20
2023-04-21T10:50:00.593Z,73.20
2023-04-21T10:53:25.802Z,73.80
2023-04-21T10:56:51.498Z,73.00
2023-04-21T11:00:23.050Z,75.00
2023-04-21T11:03:45.891Z,74.00
2023-04-21T11:07:13.737Z,73.70
2023-04-21T11:10:55.628Z,73.90
2023-04-21T11:14:18.204Z,73.50
2023-04-21T11:17:43.407Z,73.50
2023-04-21T11:21:09.522Z,73.70
2023-04-21T11:24:32.460Z,73.50
2023-04-21T11:27:56.412Z,73.10
2023-04-21T11:31:18.797Z,73.30
2023-04-21T11:34:41.851Z,72.90
2023-04-21T11:38:07.071Z,72.80
2023-04-21T11:41:29.389Z,73.70
2023-04-21T11:44:55.762Z,73.00
2023-04-21T11:48:19.636Z,72.80
2023-04-21T11:51:43.658Z,72.50
2023-04-21T11:55:18.709Z,70.50
2023-04-21T11:58:40.984Z,69.30
2023-04-21T12:02:03.320Z,71.00
2023-04-21T12:05:25.832Z,71.70
2023-04-21T12:08:49.489Z,71.80
2023-04-21T12:12:11.656Z,72.10
2023-04-21T12:15:33.968Z,72.30
2023-04-21T12:18:57.708Z,72.50
2023-04-21T12:22:20.263Z,72.40
2023-04-21T12:25:42.533Z,72.40
2023-04-21T12:29:04.883Z,72.60
2023-04-21T12:32:27.293Z,72.50
2023-04-21T12:35:49.817Z,72.40
2023-04-21T12:39:13.393Z,72.00
2023-04-21T12:42:37.812Z,71.60
2023-04-21T12:46:00.692Z,71.70
2023-04-21T12:49:23.243Z,71.70
2023-04-21T12:52:45.738Z,71.90
2023-04-21T12:56:07.984Z,71.70
2023-04-21T12:59:30.516Z,71.80
2023-04-21T13:02:53.094Z,71.70
2023-04-21T13:06:15.580Z,71.70
2023-04-21T13:09:38.437Z,71.60
2023-04-21T13:13:00.678Z,71.40
2023-04-21T13:16:23.229Z,71.40
2023-04-21T13:19:45.641Z,67.70
2023-04-21T13:23:08.827Z,70.60
2023-04-21T13:26:33.713Z,71.90
2023-04-21T13:29:57.603Z,71.90
2023-04-21T13:33:20.344Z,72.00
2023-04-21T13:36:42.702Z,71.90
2023-04-21T13:40:09.332Z,71.90
2023-04-21T13:43:31.661Z,71.90
2023-04-21T13:46:54.503Z,71.60
2023-04-21T13:50:16.837Z,71.60
2023-04-21T13:53:39.082Z,71.90
2023-04-21T13:57:02.035Z,72.10
2023-04-21T14:00:24.405Z,71.90
2023-04-21T14:03:46.833Z,71.20
2023-04-21T14:07:09.364Z,71.30
2023-04-21T14:10:31.660Z,71.20
2023-04-21T14:14:08.394Z,71.20
2023-04-21T14:17:32.335Z,71.30
2023-04-21T14:20:54.615Z,71.20
2023-04-21T14:24:16.921Z,71.30
2023-04-21T14:27:39.279Z,71.30
2023-04-21T14:31:01.902Z,71.30
2023-04-21T14:34:27.313Z,71.20
2023-04-21T14:37:49.726Z,71.20
2023-04-21T14:41:12.442Z,71.80
2023-04-21T14:44:35.777Z,71.90
2023-04-21T14:47:58.462Z,71.60
2023-04-21T14:51:21.657Z,71.40
2023-04-21T14:54:44.051Z,71.90
2023-04-21T14:58:06.390Z,71.60
2023-04-21T15:01:28.826Z,71.40
2023-04-21T15:04:51.242Z,71.30
2023-04-21T15:08:18.001Z,71.80
2023-04-21T15:11:40.310Z,71.70
2023-04-21T15:15:02.681Z,71.50
2023-04-21T15:18:24.991Z,71.40
2023-04-21T15:21:47.358Z,71.10
2023-04-21T15:25:09.943Z,71.40
2023-04-21T15:28:33.513Z,71.40
2023-04-21T15:31:56.055Z,71.40
2023-04-21T15:35:18.390Z,71.60
2023-04-21T15:38:40.981Z,71.60
2023-04-21T15:42:04.395Z,71.60
2023-04-21T15:45:26.808Z,71.70
2023-04-21T15:48:49.054Z,71.80
2023-04-21T15:52:11.829Z,72.00
2023-04-21T15:55:34.768Z,72.10
2023-04-21T15:58:57.209Z,72.10
2023-04-21T16:02:20.723Z,71.90
2023-04-21T16:05:43.482Z,71.80
2023-04-21T16:09:05.809Z,71.70
2023-04-21T16:12:28.269Z,72.00
2023-04-21T16:15:50.670Z,72.00
2023-04-21T16:19:13.190Z,72.20
2023-04-21T16:22:35.914Z,72.90
2023-04-21T16:25:58.402Z,72.50
2023-04-21T16:29:20.747Z,72.50
2023-04-21T16:32:43.068Z,72.40
2023-04-21T16:36:05.693Z,72.60
2023-04-21T16:39:28.027Z,72.80
2023-04-21T16:42:50.393Z,72.40
2023-04-21T16:46:12.811Z,71.90
2023-04-21T16:49:35.159Z,72.60
2023-04-21T16:52:57.437Z,72.20
2023-04-21T16:56:20.338Z,72.60
2023-04-21T16:59:42.738Z,72.10
2023-04-21T17:03:05.142Z,71.40
2023-04-21T17:06:27.531Z,71.60
2023-04-21T17:09:51.221Z,71.30
2023-04-21T17:13:13.523Z,70.30
2023-04-21T17:16:36.351Z,71.00
2023-04-21T17:19:58.733Z,71.50
2023-04-21T17:23:00.790Z,71.30
2023-04-21T17:26:05.131Z,71.90
2023-04-21T17:29:26.985Z,72.10
2023-04-21T17:32:51.601Z,72.20
2023-04-21T17:36:17.513Z,71.50
2023-04-21T17:39:39.862Z,71.20
2023-04-21T17:43:02.189Z,70.70
2023-04-21T17:46:25.498Z,72.00
2023-04-21T17:49:48.030Z,72.10
2023-04-21T17:53:10.720Z,72.00
2023-04-21T17:56:33.041Z,72.60
2023-04-21T17:59:55.323Z,73.30
2023-04-21T18:03:18.020Z,73.50
2023-04-21T18:06:40.698Z,73.20
2023-04-21T18:10:02.963Z,73.10
2023-04-21T18:13:25.316Z,73.70
2023-04-21T18:16:47.644Z,73.40
2023-04-21T18:20:12.315Z,75.00
2023-04-21T18:23:34.814Z,72.40
2023-04-21T18:26:57.229Z,71.70
2023-04-21T18:30:19.494Z,72.80
2023-04-21T18:33:41.766Z,73.60
2023-04-21T18:37:04.087Z,73.00
2023-04-21T18:40:26.338Z,73.20
2023-04-21T18:43:48.645Z,75.60
2023-04-21T18:47:12.099Z,76.70
2023-04-21T18:50:39.375Z,75.70
2023-04-21T18:54:01.781Z,76.10
2023-04-21T18:57:24.017Z,74.40
2023-04-21T19:00:46.325Z,75.50
2023-04-21T19:04:11.409Z,73.90
2023-04-21T19:07:34.337Z,74.70
2023-04-21T19:10:56.530Z,74.80
2023-04-21T19:14:18.777Z,75.10
2023-04-21T19:17:41.199Z,75.20
2023-04-21T19:21:04.653Z,74.40
2023-04-21T19:24:26.934Z,75.50
2023-04-21T19:27:49.257Z,72.90
2023-04-21T19:31:11.633Z,72.90
2023-04-21T19:34:34.088Z,72.50
2023-04-21T19:37:56.392Z,72.10
2023-04-21T19:41:18.680Z,73.40
2023-04-21T19:44:41.014Z,71.60
2023-04-21T19:48:04.507Z,71.20
2023-04-21T19:51:27.881Z,71.00
2023-04-21T19:54:50.491Z,71.20
2023-04-21T19:58:13.215Z,71.90
2023-04-21T20:01:37.188Z,72.70
2023-04-21T20:04:59.611Z,74.10
2023-04-21T20:08:22.779Z,73.60
2023-04-21T20:11:45.142Z,74.10
2023-04-21T20:15:08.334Z,71.10
2023-04-21T20:18:31.869Z,75.00
2023-04-21T20:21:54.146Z,73.70
2023-04-21T20:25:16.515Z,74.00
2023-04-21T20:28:38.812Z,74.30
2023-04-21T20:32:04.200Z,74.10
2023-04-21T20:35:26.700Z,73.90
2023-04-21T20:38:50.531Z,73.90
2023-04-21T20:42:14.027Z,73.70
2023-04-21T20:45:36.444Z,73.70
2023-04-21T20:48:58.836Z,73.60
2023-04-21T20:52:21.399Z,73.60
2023-04-21T20:55:43.861Z,73.40
2023-04-21T20:59:06.359Z,73.40
2023-04-21T21:02:28.626Z,73.30
2023-04-21T21:05:51.228Z,73.30
2023-04-21T21:09:13.507Z,73.30
2023-04-21T21:12:35.796Z,73.30
2023-04-21T21:15:58.110Z,73.30
2023-04-21T21:19:20.499Z,73.20
2023-04-21T21:22:43.258Z,73.20
2023-04-21T21:26:05.850Z,73.20
2023-04-21T21:29:29.260Z,73.10
2023-04-21T21:32:52.780Z,73.00
2023-04-21T21:36:15.129Z,73.00
2023-04-21T21:39:37.706Z,73.00
2023-04-21T21:43:00.457Z,72.80
2023-04-21T21:46:22.866Z,72.80
2023-04-21T21:49:45.467Z,72.90
2023-04-21T21:53:07.928Z,72.70
2023-04-21T21:56:30.335Z,72.80
2023-04-21T21:59:52.930Z,72.80
2023-04-21T22:03:15.257Z,72.90
2023-04-21T22:06:38.179Z,72.80
2023-04-21T22:10:00.484Z,72.80
2023-04-21T22:13:22.800Z,72.80
2023-04-21T22:16:46.165Z,72.80
2023-04-21T22:20:08.836Z,73.00
2023-04-21T22:23:31.999Z,72.80
2023-04-21T22:26:54.254Z,72.80
2023-04-21T22:30:16.539Z,72.80
2023-04-21T22:33:38.764Z,72.90
2023-04-21T22:37:02.240Z,72.80
2023-04-21T22:40:24.580Z,72.80
2023-04-21T22:43:47.515Z,72.80
2023-04-21T22:47:10.722Z,72.70
2023-04-21T22:50:34.520Z,72.60
2023-04-21T22:53:56.885Z,72.70
2023-04-21T22:57:19.216Z,72.50
2023-04-21T23:00:41.924Z,72.60
2023-04-21T23:04:04.416Z,72.60
2023-04-21T23:07:26.843Z,72.70
2023-04-21T23:10:49.188Z,72.60
2023-04-21T23:14:11.583Z,72.70
2023-04-21T23:17:34.007Z,72.80
2023-04-21T23:20:56.298Z,72.80
2023-04-21T23:24:18.560Z,72.80
2023-04-21T23:27:41.073Z,72.80
2023-04-21T23:31:03.466Z,72.80
2023-04-21T23:34:25.793Z,72.80
2023-04-21T23:37:48.727Z,72.80
2023-04-21T23:41:11.270Z,72.80
2023-04-21T23:44:33.632Z,72.80
2023-04-21T23:47:55.832Z,72.80
2023-04-21T23:51:19.274Z,72.80
2023-04-21T23:54:41.562Z,72.70
2023-04-21T23:58:03.855Z,72.70
